sensor_id;sensor_type;location;lat;lon;timestamp;P1;durP1;ratioP1;P2;durP2;ratioP2
52396;SDS011;38322;53.108;6.308;2023-05-03T05:02:42;3.80;;;3.20;;
52396;SDS011;38322;53.108;6.308;2023-05-03T05:05:08;3.72;;;3.25;;
52396;SDS011;38322;53.108;6.308;2023-05-03T05:07:34;6.80;;;3.72;;
52396;SDS011;38322;53.108;6.308;2023-05-03T05:10:00;7.28;;;4.70;;
52396;SDS011;38322;53.108;6.308;2023-05-03T05:12:26;5.28;;;4.40;;
52396;SDS011;38322;53.108;6.308;2023-05-03T05:14:52;5.28;;;4.20;;
52396;SDS011;38322;53.108;6.308;2023-05-03T05:17:18;9.25;;;5.15;;
52396;SDS011;38322;53.108;6.308;2023-05-03T05:19:43;5.43;;;3.45;;
52396;SDS011;38322;53.108;6.308;2023-05-03T05:22:09;8.30;;;5.25;;
52396;SDS011;38322;53.108;6.308;2023-05-03T05:24:35;4.60;;;4.20;;
52396;SDS011;38322;53.108;6.308;2023-05-03T05:27:01;8.15;;;3.92;;
52396;SDS011;38322;53.108;6.308;2023-05-03T05:29:26;5.22;;;3.67;;
52396;SDS011;38322;53.108;6.308;2023-05-03T05:31:52;7.10;;;3.17;;
52396;SDS011;38322;53.108;6.308;2023-05-03T05:34:18;3.97;;;3.47;;
52396;SDS011;38322;53.108;6.308;2023-05-03T05:36:44;4.55;;;3.03;;
52396;SDS011;38322;53.108;6.308;2023-05-03T05:39:09;9.20;;;3.47;;
52396;SDS011;38322;53.108;6.308;2023-05-03T05:41:36;5.10;;;3.00;;
52396;SDS011;38322;53.108;6.308;2023-05-03T05:44:02;5.75;;;3.28;;
52396;SDS011;38322;53.108;6.308;2023-05-03T05:46:27;3.95;;;2.95;;
52396;SDS011;38322;53.108;6.308;2023-05-03T05:48:53;5.25;;;3.30;;
52396;SDS011;38322;53.108;6.308;2023-05-03T05:51:19;2.88;;;2.53;;
52396;SDS011;38322;53.108;6.308;2023-05-03T05:53:45;8.07;;;2.47;;
52396;SDS011;38322;53.108;6.308;2023-05-03T05:56:11;4.70;;;2.22;;
52396;SDS011;38322;53.108;6.308;2023-05-03T05:58:37;5.55;;;2.78;;
52396;SDS011;38322;53.108;6.308;2023-05-03T06:01:03;4.22;;;2.63;;
52396;SDS011;38322;53.108;6.308;2023-05-03T06:03:29;3.35;;;2.70;;
52396;SDS011;38322;53.108;6.308;2023-05-03T06:05:55;7.00;;;2.58;;
52396;SDS011;38322;53.108;6.308;2023-05-03T06:08:21;4.88;;;2.20;;
52396;SDS011;38322;53.108;6.308;2023-05-03T06:10:47;8.38;;;2.25;;
52396;SDS011;38322;53.108;6.308;2023-05-03T06:13:13;2.85;;;2.17;;
52396;SDS011;38322;53.108;6.308;2023-05-03T06:15:39;3.72;;;1.88;;
52396;SDS011;38322;53.108;6.308;2023-05-03T06:18:05;5.57;;;2.08;;
52396;SDS011;38322;53.108;6.308;2023-05-03T06:20:31;8.50;;;1.60;;
52396;SDS011;38322;53.108;6.308;2023-05-03T06:22:57;4.57;;;1.70;;
52396;SDS011;38322;53.108;6.308;2023-05-03T06:25:23;2.88;;;1.80;;
52396;SDS011;38322;53.108;6.308;2023-05-03T06:27:48;2.75;;;1.77;;
52396;SDS011;38322;53.108;6.308;2023-05-03T06:30:14;8.18;;;1.83;;
52396;SDS011;38322;53.108;6.308;2023-05-03T06:32:40;4.53;;;2.15;;
52396;SDS011;38322;53.108;6.308;2023-05-03T06:35:06;2.45;;;1.23;;
52396;SDS011;38322;53.108;6.308;2023-05-03T06:37:34;8.18;;;2.08;;
52396;SDS011;38322;53.108;6.308;2023-05-03T06:40:00;4.30;;;1.10;;
52396;SDS011;38322;53.108;6.308;2023-05-03T06:42:26;1.65;;;1.27;;
52396;SDS011;38322;53.108;6.308;2023-05-03T06:44:52;1.60;;;0.40;;
52396;SDS011;38322;53.108;6.308;2023-05-03T06:47:17;1.92;;;0.50;;
52396;SDS011;38322;53.108;6.308;2023-05-03T06:49:45;4.60;;;0.65;;
52396;SDS011;38322;53.108;6.308;2023-05-03T06:52:11;1.95;;;0.30;;
52396;SDS011;38322;53.108;6.308;2023-05-03T06:54:37;5.55;;;2.42;;
52396;SDS011;38322;53.108;6.308;2023-05-03T06:57:03;3.08;;;0.52;;
52396;SDS011;38322;53.108;6.308;2023-05-03T06:59:29;3.15;;;0.80;;
52396;SDS011;38322;53.108;6.308;2023-05-03T07:01:55;1.05;;;0.52;;
52396;SDS011;38322;53.108;6.308;2023-05-03T07:04:20;1.30;;;0.80;;
52396;SDS011;38322;53.108;6.308;2023-05-03T07:06:46;3.63;;;1.50;;
52396;SDS011;38322;53.108;6.308;2023-05-03T07:09:12;3.90;;;0.90;;
52396;SDS011;38322;53.108;6.308;2023-05-03T07:11:38;3.80;;;1.40;;
52396;SDS011;38322;53.108;6.308;2023-05-03T07:14:08;2.30;;;1.17;;
52396;SDS011;38322;53.108;6.308;2023-05-03T07:16:34;1.90;;;0.70;;
52396;SDS011;38322;53.108;6.308;2023-05-03T07:19:00;3.88;;;0.90;;
52396;SDS011;38322;53.108;6.308;2023-05-03T07:21:25;5.53;;;2.08;;
52396;SDS011;38322;53.108;6.308;2023-05-03T07:23:53;5.03;;;0.80;;
52396;SDS011;38322;53.108;6.308;2023-05-03T07:26:19;3.42;;;0.70;;
52396;SDS011;38322;53.108;6.308;2023-05-03T07:28:45;2.83;;;0.70;;
52396;SDS011;38322;53.108;6.308;2023-05-03T07:31:11;1.85;;;0.40;;
52396;SDS011;38322;53.108;6.308;2023-05-03T07:33:37;4.82;;;0.60;;
52396;SDS011;38322;53.108;6.308;2023-05-03T07:36:03;2.72;;;0.45;;
52396;SDS011;38322;53.108;6.308;2023-05-03T07:38:29;2.20;;;0.60;;
52396;SDS011;38322;53.108;6.308;2023-05-03T07:40:55;5.28;;;0.40;;
52396;SDS011;38322;53.108;6.308;2023-05-03T07:43:21;1.95;;;0.55;;
52396;SDS011;38322;53.108;6.308;2023-05-03T07:45:48;1.13;;;0.55;;
52396;SDS011;38322;53.108;6.308;2023-05-03T07:48:13;2.53;;;0.60;;
52396;SDS011;38322;53.108;6.308;2023-05-03T07:50:41;2.13;;;0.20;;
52396;SDS011;38322;53.108;6.308;2023-05-03T07:53:08;3.20;;;1.52;;
52396;SDS011;38322;53.108;6.308;2023-05-03T07:55:34;4.88;;;0.43;;
52396;SDS011;38322;53.108;6.308;2023-05-03T07:58:00;3.95;;;0.73;;
52396;SDS011;38322;53.108;6.308;2023-05-03T08:00:27;4.72;;;1.17;;
52396;SDS011;38322;53.108;6.308;2023-05-03T08:02:53;4.53;;;0.45;;
52396;SDS011;38322;53.108;6.308;2023-05-03T08:05:19;2.55;;;0.40;;
52396;SDS011;38322;53.108;6.308;2023-05-03T08:07:45;2.20;;;0.47;;
52396;SDS011;38322;53.108;6.308;2023-05-03T08:10:11;2.05;;;0.38;;
52396;SDS011;38322;53.108;6.308;2023-05-03T08:12:37;3.42;;;0.77;;
52396;SDS011;38322;53.108;6.308;2023-05-03T08:15:03;2.25;;;0.20;;
52396;SDS011;38322;53.108;6.308;2023-05-03T08:17:31;1.67;;;1.15;;
52396;SDS011;38322;53.108;6.308;2023-05-03T08:19:57;0.85;;;0.20;;
52396;SDS011;38322;53.108;6.308;2023-05-03T08:22:23;1.73;;;0.20;;
52396;SDS011;38322;53.108;6.308;2023-05-03T08:24:51;6.55;;;0.50;;
52396;SDS011;38322;53.108;6.308;2023-05-03T08:27:17;3.80;;;0.45;;
52396;SDS011;38322;53.108;6.308;2023-05-03T08:29:43;1.15;;;0.40;;
52396;SDS011;38322;53.108;6.308;2023-05-03T08:32:09;2.67;;;0.20;;
52396;SDS011;38322;53.108;6.308;2023-05-03T08:34:34;2.88;;;0.30;;
52396;SDS011;38322;53.108;6.308;2023-05-03T08:37:00;3.45;;;0.30;;
52396;SDS011;38322;53.108;6.308;2023-05-03T08:39:28;3.95;;;0.45;;
52396;SDS011;38322;53.108;6.308;2023-05-03T08:41:55;1.98;;;0.30;;
52396;SDS011;38322;53.108;6.308;2023-05-03T08:44:23;2.35;;;0.30;;
52396;SDS011;38322;53.108;6.308;2023-05-03T08:46:53;1.20;;;0.30;;
52396;SDS011;38322;53.108;6.308;2023-05-03T08:49:19;2.17;;;0.32;;
52396;SDS011;38322;53.108;6.308;2023-05-03T08:51:45;2.20;;;0.20;;
52396;SDS011;38322;53.108;6.308;2023-05-03T08:54:13;1.30;;;0.35;;
52396;SDS011;38322;53.108;6.308;2023-05-03T08:56:41;1.98;;;0.50;;
52396;SDS011;38322;53.108;6.308;2023-05-03T08:59:08;4.15;;;0.30;;
52396;SDS011;38322;53.108;6.308;2023-05-03T09:01:35;2.63;;;0.43;;
52396;SDS011;38322;53.108;6.308;2023-05-03T09:04:03;3.80;;;0.50;;
52396;SDS011;38322;53.108;6.308;2023-05-03T09:06:29;2.35;;;0.30;;
52396;SDS011;38322;53.108;6.308;2023-05-03T09:08:57;1.77;;;0.47;;
52396;SDS011;38322;53.108;6.308;2023-05-03T09:11:24;2.03;;;0.35;;
52396;SDS011;38322;53.108;6.308;2023-05-03T09:13:53;2.42;;;0.40;;
52396;SDS011;38322;53.108;6.308;2023-05-03T09:19:02;4.75;;;0.60;;
52396;SDS011;38322;53.108;6.308;2023-05-03T09:21:33;3.80;;;0.70;;
52396;SDS011;38322;53.108;6.308;2023-05-03T09:24:00;1.45;;;0.38;;
52396;SDS011;38322;53.108;6.308;2023-05-03T09:26:32;0.65;;;0.35;;
52396;SDS011;38322;53.108;6.308;2023-05-03T09:28:59;3.45;;;0.40;;
52396;SDS011;38322;53.108;6.308;2023-05-03T09:31:28;5.40;;;0.40;;
52396;SDS011;38322;53.108;6.308;2023-05-03T09:33:55;1.38;;;0.40;;
52396;SDS011;38322;53.108;6.308;2023-05-03T09:36:21;4.95;;;1.15;;
52396;SDS011;38322;53.108;6.308;2023-05-03T09:38:48;3.53;;;0.60;;
52396;SDS011;38322;53.108;6.308;2023-05-03T09:41:15;2.35;;;0.40;;
52396;SDS011;38322;53.108;6.308;2023-05-03T09:43:56;2.17;;;0.50;;
52396;SDS011;38322;53.108;6.308;2023-05-03T09:46:27;2.97;;;0.95;;
52396;SDS011;38322;53.108;6.308;2023-05-03T09:48:54;1.33;;;0.50;;
52396;SDS011;38322;53.108;6.308;2023-05-03T09:51:22;1.65;;;0.30;;
52396;SDS011;38322;53.108;6.308;2023-05-03T09:53:48;1.88;;;0.40;;
52396;SDS011;38322;53.108;6.308;2023-05-03T09:56:15;4.25;;;0.50;;
52396;SDS011;38322;53.108;6.308;2023-05-03T09:58:41;1.92;;;0.40;;
52396;SDS011;38322;53.108;6.308;2023-05-03T10:01:08;4.20;;;0.40;;
52396;SDS011;38322;53.108;6.308;2023-05-03T10:03:39;3.55;;;0.60;;
52396;SDS011;38322;53.108;6.308;2023-05-03T10:06:22;3.03;;;0.32;;
52396;SDS011;38322;53.108;6.308;2023-05-03T10:11:38;4.57;;;0.40;;
52396;SDS011;38322;53.108;6.308;2023-05-03T10:14:10;2.78;;;0.50;;
52396;SDS011;38322;53.108;6.308;2023-05-03T10:16:37;2.55;;;0.77;;
52396;SDS011;38322;53.108;6.308;2023-05-03T10:19:13;1.77;;;0.30;;
52396;SDS011;38322;53.108;6.308;2023-05-03T10:21:50;0.75;;;0.30;;
52396;SDS011;38322;53.108;6.308;2023-05-03T10:24:26;2.35;;;0.40;;
52396;SDS011;38322;53.108;6.308;2023-05-03T10:26:52;2.17;;;0.35;;
52396;SDS011;38322;53.108;6.308;2023-05-03T10:31:59;4.10;;;0.50;;
52396;SDS011;38322;53.108;6.308;2023-05-03T10:34:33;4.63;;;0.95;;
52396;SDS011;38322;53.108;6.308;2023-05-03T10:37:00;6.53;;;0.43;;
52396;SDS011;38322;53.108;6.308;2023-05-03T10:39:27;3.65;;;0.40;;
52396;SDS011;38322;53.108;6.308;2023-05-03T10:42:01;2.00;;;0.50;;
52396;SDS011;38322;53.108;6.308;2023-05-03T10:44:34;2.50;;;0.77;;
52396;SDS011;38322;53.108;6.308;2023-05-03T10:49:38;3.80;;;0.60;;
52396;SDS011;38322;53.108;6.308;2023-05-03T10:55:00;2.83;;;0.40;;
52396;SDS011;38322;53.108;6.308;2023-05-03T10:57:28;5.43;;;0.60;;
52396;SDS011;38322;53.108;6.308;2023-05-03T10:59:56;1.63;;;0.40;;
52396;SDS011;38322;53.108;6.308;2023-05-03T11:02:27;4.10;;;0.60;;
52396;SDS011;38322;53.108;6.308;2023-05-03T11:04:58;1.85;;;0.50;;
52396;SDS011;38322;53.108;6.308;2023-05-03T11:07:29;4.25;;;0.77;;
52396;SDS011;38322;53.108;6.308;2023-05-03T11:09:56;3.67;;;1.10;;
52396;SDS011;38322;53.108;6.308;2023-05-03T11:12:21;2.92;;;1.02;;
52396;SDS011;38322;53.108;6.308;2023-05-03T11:14:50;2.88;;;0.65;;
52396;SDS011;38322;53.108;6.308;2023-05-03T11:17:16;5.38;;;0.82;;
52396;SDS011;38322;53.108;6.308;2023-05-03T11:19:42;4.32;;;0.73;;
52396;SDS011;38322;53.108;6.308;2023-05-03T11:22:08;2.30;;;0.95;;
52396;SDS011;38322;53.108;6.308;2023-05-03T11:24:36;4.30;;;0.95;;
52396;SDS011;38322;53.108;6.308;2023-05-03T11:27:02;3.13;;;0.80;;
52396;SDS011;38322;53.108;6.308;2023-05-03T11:29:28;1.15;;;0.73;;
52396;SDS011;38322;53.108;6.308;2023-05-03T11:31:54;1.80;;;0.88;;
52396;SDS011;38322;53.108;6.308;2023-05-03T11:34:20;3.25;;;0.65;;
52396;SDS011;38322;53.108;6.308;2023-05-03T11:36:46;4.93;;;1.30;;
52396;SDS011;38322;53.108;6.308;2023-05-03T11:39:13;3.75;;;0.98;;
52396;SDS011;38322;53.108;6.308;2023-05-03T11:41:39;1.58;;;1.33;;
52396;SDS011;38322;53.108;6.308;2023-05-03T11:44:06;4.00;;;0.90;;
52396;SDS011;38322;53.108;6.308;2023-05-03T11:46:34;8.13;;;1.40;;
52396;SDS011;38322;53.108;6.308;2023-05-03T11:49:02;4.28;;;0.50;;
52396;SDS011;38322;53.108;6.308;2023-05-03T11:51:28;5.30;;;2.35;;
52396;SDS011;38322;53.108;6.308;2023-05-03T11:53:55;2.40;;;0.80;;
52396;SDS011;38322;53.108;6.308;2023-05-03T11:56:24;4.45;;;1.17;;
52396;SDS011;38322;53.108;6.308;2023-05-03T12:01:21;2.67;;;0.77;;
52396;SDS011;38322;53.108;6.308;2023-05-03T12:03:51;3.17;;;1.13;;
52396;SDS011;38322;53.108;6.308;2023-05-03T12:06:19;2.58;;;1.10;;
52396;SDS011;38322;53.108;6.308;2023-05-03T12:08:45;4.82;;;0.95;;
52396;SDS011;38322;53.108;6.308;2023-05-03T12:11:11;6.35;;;1.20;;
52396;SDS011;38322;53.108;6.308;2023-05-03T12:13:37;3.33;;;0.55;;
52396;SDS011;38322;53.108;6.308;2023-05-03T12:16:03;2.42;;;0.95;;
52396;SDS011;38322;53.108;6.308;2023-05-03T12:18:48;1.58;;;0.95;;
52396;SDS011;38322;53.108;6.308;2023-05-03T12:21:16;6.95;;;1.67;;
52396;SDS011;38322;53.108;6.308;2023-05-03T12:23:43;1.80;;;0.65;;
52396;SDS011;38322;53.108;6.308;2023-05-03T12:26:10;3.85;;;1.10;;
52396;SDS011;38322;53.108;6.308;2023-05-03T12:28:36;3.22;;;1.00;;
52396;SDS011;38322;53.108;6.308;2023-05-03T12:31:02;3.55;;;0.82;;
52396;SDS011;38322;53.108;6.308;2023-05-03T12:33:29;3.55;;;1.10;;
52396;SDS011;38322;53.108;6.308;2023-05-03T12:35:55;3.40;;;0.95;;
52396;SDS011;38322;53.108;6.308;2023-05-03T12:38:21;1.30;;;0.68;;
52396;SDS011;38322;53.108;6.308;2023-05-03T12:40:47;2.17;;;0.57;;
52396;SDS011;38322;53.108;6.308;2023-05-03T12:43:13;3.00;;;0.88;;
52396;SDS011;38322;53.108;6.308;2023-05-03T12:45:40;1.65;;;0.68;;
52396;SDS011;38322;53.108;6.308;2023-05-03T12:48:06;4.57;;;1.10;;
52396;SDS011;38322;53.108;6.308;2023-05-03T12:50:32;4.25;;;0.70;;
52396;SDS011;38322;53.108;6.308;2023-05-03T12:52:58;3.78;;;1.10;;
52396;SDS011;38322;53.108;6.308;2023-05-03T12:55:24;3.33;;;1.27;;
52396;SDS011;38322;53.108;6.308;2023-05-03T12:57:50;5.93;;;1.70;;
52396;SDS011;38322;53.108;6.308;2023-05-03T13:00:16;2.78;;;0.88;;
52396;SDS011;38322;53.108;6.308;2023-05-03T13:02:44;1.75;;;0.75;;
52396;SDS011;38322;53.108;6.308;2023-05-03T13:05:09;3.05;;;0.68;;
52396;SDS011;38322;53.108;6.308;2023-05-03T13:07:37;2.60;;;0.70;;
52396;SDS011;38322;53.108;6.308;2023-05-03T13:10:04;0.95;;;0.80;;
52396;SDS011;38322;53.108;6.308;2023-05-03T13:12:31;2.97;;;0.52;;
52396;SDS011;38322;53.108;6.308;2023-05-03T13:14:57;4.03;;;1.67;;
52396;SDS011;38322;53.108;6.308;2023-05-03T13:17:23;1.80;;;0.90;;
52396;SDS011;38322;53.108;6.308;2023-05-03T13:19:49;1.50;;;0.85;;
52396;SDS011;38322;53.108;6.308;2023-05-03T13:22:16;6.85;;;1.55;;
52396;SDS011;38322;53.108;6.308;2023-05-03T13:24:43;2.70;;;0.90;;
52396;SDS011;38322;53.108;6.308;2023-05-03T13:27:10;3.75;;;1.15;;
52396;SDS011;38322;53.108;6.308;2023-05-03T13:29:37;4.13;;;0.70;;
52396;SDS011;38322;53.108;6.308;2023-05-03T13:32:03;4.60;;;1.17;;
52396;SDS011;38322;53.108;6.308;2023-05-03T13:34:30;4.88;;;1.20;;
52396;SDS011;38322;53.108;6.308;2023-05-03T13:36:56;5.47;;;1.50;;
52396;SDS011;38322;53.108;6.308;2023-05-03T13:39:21;5.55;;;1.25;;
52396;SDS011;38322;53.108;6.308;2023-05-03T13:41:47;3.60;;;0.75;;
52396;SDS011;38322;53.108;6.308;2023-05-03T13:44:13;3.33;;;0.88;;
52396;SDS011;38322;53.108;6.308;2023-05-03T13:46:39;4.05;;;2.08;;
52396;SDS011;38322;53.108;6.308;2023-05-03T13:49:05;4.35;;;1.30;;
52396;SDS011;38322;53.108;6.308;2023-05-03T13:51:31;3.45;;;0.93;;
52396;SDS011;38322;53.108;6.308;2023-05-03T13:53:58;3.05;;;0.80;;
52396;SDS011;38322;53.108;6.308;2023-05-03T13:56:25;5.15;;;1.13;;
52396;SDS011;38322;53.108;6.308;2023-05-03T13:58:52;4.90;;;1.38;;
52396;SDS011;38322;53.108;6.308;2023-05-03T14:01:19;1.48;;;1.23;;
52396;SDS011;38322;53.108;6.308;2023-05-03T14:03:45;3.90;;;1.42;;
52396;SDS011;38322;53.108;6.308;2023-05-03T14:06:11;3.80;;;2.13;;
52396;SDS011;38322;53.108;6.308;2023-05-03T14:08:37;3.95;;;1.05;;
52396;SDS011;38322;53.108;6.308;2023-05-03T14:11:04;6.40;;;1.20;;
52396;SDS011;38322;53.108;6.308;2023-05-03T14:13:35;2.30;;;1.45;;
52396;SDS011;38322;53.108;6.308;2023-05-03T14:16:01;3.03;;;1.10;;
52396;SDS011;38322;53.108;6.308;2023-05-03T14:18:27;3.13;;;1.52;;
52396;SDS011;38322;53.108;6.308;2023-05-03T14:20:53;12.02;;;1.83;;
52396;SDS011;38322;53.108;6.308;2023-05-03T14:23:19;4.30;;;1.10;;
52396;SDS011;38322;53.108;6.308;2023-05-03T14:25:44;5.72;;;1.38;;
52396;SDS011;38322;53.108;6.308;2023-05-03T14:28:10;3.83;;;1.45;;
52396;SDS011;38322;53.108;6.308;2023-05-03T14:30:36;4.15;;;1.05;;
52396;SDS011;38322;53.108;6.308;2023-05-03T14:33:02;9.45;;;1.95;;
52396;SDS011;38322;53.108;6.308;2023-05-03T14:35:27;7.82;;;1.63;;
52396;SDS011;38322;53.108;6.308;2023-05-03T14:37:54;7.47;;;1.15;;
52396;SDS011;38322;53.108;6.308;2023-05-03T14:40:20;3.03;;;0.98;;
52396;SDS011;38322;53.108;6.308;2023-05-03T14:42:45;5.80;;;1.30;;
52396;SDS011;38322;53.108;6.308;2023-05-03T14:45:13;6.30;;;1.52;;
52396;SDS011;38322;53.108;6.308;2023-05-03T14:47:40;1.98;;;0.88;;
52396;SDS011;38322;53.108;6.308;2023-05-03T14:50:06;6.68;;;1.65;;
52396;SDS011;38322;53.108;6.308;2023-05-03T14:52:32;6.15;;;1.00;;
52396;SDS011;38322;53.108;6.308;2023-05-03T14:54:58;2.22;;;1.17;;
52396;SDS011;38322;53.108;6.308;2023-05-03T14:57:24;2.60;;;1.52;;
52396;SDS011;38322;53.108;6.308;2023-05-03T14:59:49;3.75;;;2.05;;
52396;SDS011;38322;53.108;6.308;2023-05-03T15:02:15;3.33;;;1.20;;
52396;SDS011;38322;53.108;6.308;2023-05-03T15:04:41;5.68;;;1.90;;
52396;SDS011;38322;53.108;6.308;2023-05-03T15:07:07;5.90;;;1.80;;
52396;SDS011;38322;53.108;6.308;2023-05-03T15:09:33;7.13;;;1.23;;
52396;SDS011;38322;53.108;6.308;2023-05-03T15:12:00;2.67;;;1.15;;
52396;SDS011;38322;53.108;6.308;2023-05-03T15:14:26;3.05;;;1.20;;
52396;SDS011;38322;53.108;6.308;2023-05-03T15:16:52;2.05;;;1.17;;
52396;SDS011;38322;53.108;6.308;2023-05-03T15:19:18;2.70;;;1.85;;
52396;SDS011;38322;53.108;6.308;2023-05-03T15:21:46;4.28;;;1.55;;
52396;SDS011;38322;53.108;6.308;2023-05-03T15:24:14;5.07;;;3.13;;
52396;SDS011;38322;53.108;6.308;2023-05-03T15:26:40;6.25;;;1.50;;
52396;SDS011;38322;53.108;6.308;2023-05-03T15:29:06;3.88;;;1.17;;
52396;SDS011;38322;53.108;6.308;2023-05-03T15:31:32;6.78;;;2.63;;
52396;SDS011;38322;53.108;6.308;2023-05-03T15:33:59;5.85;;;2.00;;
52396;SDS011;38322;53.108;6.308;2023-05-03T15:36:25;2.65;;;2.38;;
52396;SDS011;38322;53.108;6.308;2023-05-03T15:38:51;4.68;;;1.98;;
52396;SDS011;38322;53.108;6.308;2023-05-03T15:41:17;4.53;;;2.08;;
52396;SDS011;38322;53.108;6.308;2023-05-03T15:43:43;2.53;;;1.40;;
52396;SDS011;38322;53.108;6.308;2023-05-03T15:46:10;3.33;;;1.45;;
52396;SDS011;38322;53.108;6.308;2023-05-03T15:48:36;6.10;;;1.38;;
52396;SDS011;38322;53.108;6.308;2023-05-03T15:51:02;3.80;;;2.10;;
52396;SDS011;38322;53.108;6.308;2023-05-03T15:53:28;1.73;;;1.17;;
52396;SDS011;38322;53.108;6.308;2023-05-03T15:55:54;6.07;;;1.90;;
52396;SDS011;38322;53.108;6.308;2023-05-03T15:58:22;1.83;;;1.00;;
52396;SDS011;38322;53.108;6.308;2023-05-03T16:00:49;2.22;;;1.50;;
52396;SDS011;38322;53.108;6.308;2023-05-03T16:03:16;2.05;;;1.13;;
52396;SDS011;38322;53.108;6.308;2023-05-03T16:05:42;4.53;;;1.70;;
52396;SDS011;38322;53.108;6.308;2023-05-03T16:08:10;3.05;;;1.13;;
52396;SDS011;38322;53.108;6.308;2023-05-03T16:10:36;8.40;;;1.92;;
52396;SDS011;38322;53.108;6.308;2023-05-03T16:13:02;2.35;;;1.23;;
52396;SDS011;38322;53.108;6.308;2023-05-03T16:15:28;3.28;;;1.15;;
52396;SDS011;38322;53.108;6.308;2023-05-03T16:17:54;3.75;;;1.48;;
52396;SDS011;38322;53.108;6.308;2023-05-03T16:20:20;5.63;;;1.35;;
52396;SDS011;38322;53.108;6.308;2023-05-03T16:22:46;4.05;;;1.55;;
52396;SDS011;38322;53.108;6.308;2023-05-03T16:25:12;3.30;;;2.10;;
52396;SDS011;38322;53.108;6.308;2023-05-03T16:27:38;1.98;;;1.80;;
52396;SDS011;38322;53.108;6.308;2023-05-03T16:30:04;2.45;;;1.33;;
52396;SDS011;38322;53.108;6.308;2023-05-03T16:32:31;3.53;;;1.55;;
52396;SDS011;38322;53.108;6.308;2023-05-03T16:34:58;4.03;;;1.90;;
52396;SDS011;38322;53.108;6.308;2023-05-03T16:37:25;3.10;;;1.42;;
52396;SDS011;38322;53.108;6.308;2023-05-03T16:39:51;4.00;;;1.30;;
52396;SDS011;38322;53.108;6.308;2023-05-03T16:42:16;4.82;;;1.55;;
52396;SDS011;38322;53.108;6.308;2023-05-03T16:44:43;4.00;;;1.35;;
52396;SDS011;38322;53.108;6.308;2023-05-03T16:47:09;4.07;;;1.42;;
52396;SDS011;38322;53.108;6.308;2023-05-03T16:49:35;3.40;;;1.00;;
52396;SDS011;38322;53.108;6.308;2023-05-03T16:52:01;5.15;;;1.35;;
52396;SDS011;38322;53.108;6.308;2023-05-03T16:54:26;4.13;;;1.42;;
52396;SDS011;38322;53.108;6.308;2023-05-03T16:56:53;2.28;;;1.30;;
52396;SDS011;38322;53.108;6.308;2023-05-03T16:59:18;2.53;;;2.10;;
52396;SDS011;38322;53.108;6.308;2023-05-03T17:01:44;7.88;;;1.83;;
52396;SDS011;38322;53.108;6.308;2023-05-03T17:04:10;4.68;;;1.27;;
52396;SDS011;38322;53.108;6.308;2023-05-03T17:06:36;3.33;;;1.08;;
52396;SDS011;38322;53.108;6.308;2023-05-03T17:09:02;8.70;;;2.20;;
52396;SDS011;38322;53.108;6.308;2023-05-03T17:11:28;3.60;;;1.30;;
52396;SDS011;38322;53.108;6.308;2023-05-03T17:13:54;4.55;;;1.25;;
52396;SDS011;38322;53.108;6.308;2023-05-03T17:16:20;4.28;;;1.10;;
52396;SDS011;38322;53.108;6.308;2023-05-03T17:18:46;4.07;;;1.55;;
52396;SDS011;38322;53.108;6.308;2023-05-03T17:21:13;3.33;;;1.80;;
52396;SDS011;38322;53.108;6.308;2023-05-03T17:23:39;4.25;;;1.77;;
52396;SDS011;38322;53.108;6.308;2023-05-03T17:26:06;4.32;;;2.03;;
52396;SDS011;38322;53.108;6.308;2023-05-03T17:28:33;5.15;;;1.48;;
52396;SDS011;38322;53.108;6.308;2023-05-03T17:31:00;7.10;;;1.80;;
52396;SDS011;38322;53.108;6.308;2023-05-03T17:33:26;7.85;;;2.13;;
52396;SDS011;38322;53.108;6.308;2023-05-03T17:35:53;7.57;;;2.42;;
52396;SDS011;38322;53.108;6.308;2023-05-03T17:38:20;7.65;;;1.52;;
52396;SDS011;38322;53.108;6.308;2023-05-03T17:40:46;5.53;;;2.03;;
52396;SDS011;38322;53.108;6.308;2023-05-03T17:43:12;5.57;;;1.80;;
52396;SDS011;38322;53.108;6.308;2023-05-03T17:45:42;7.03;;;1.67;;
52396;SDS011;38322;53.108;6.308;2023-05-03T17:48:08;5.10;;;1.67;;
52396;SDS011;38322;53.108;6.308;2023-05-03T17:50:36;3.40;;;1.23;;
52396;SDS011;38322;53.108;6.308;2023-05-03T17:53:03;6.20;;;1.52;;
52396;SDS011;38322;53.108;6.308;2023-05-03T17:55:29;4.13;;;2.40;;
52396;SDS011;38322;53.108;6.308;2023-05-03T17:57:57;3.72;;;1.48;;
52396;SDS011;38322;53.108;6.308;2023-05-03T18:00:23;4.10;;;1.70;;
52396;SDS011;38322;53.108;6.308;2023-05-03T18:02:51;4.75;;;1.30;;
52396;SDS011;38322;53.108;6.308;2023-05-03T18:05:17;3.78;;;1.50;;
52396;SDS011;38322;53.108;6.308;2023-05-03T18:07:43;7.40;;;1.95;;
52396;SDS011;38322;53.108;6.308;2023-05-03T18:10:09;3.33;;;1.00;;
52396;SDS011;38322;53.108;6.308;2023-05-03T18:12:40;3.80;;;1.98;;
52396;SDS011;38322;53.108;6.308;2023-05-03T18:15:07;3.47;;;1.23;;
52396;SDS011;38322;53.108;6.308;2023-05-03T18:17:33;4.88;;;1.60;;
52396;SDS011;38322;53.108;6.308;2023-05-03T18:19:59;6.00;;;2.80;;
52396;SDS011;38322;53.108;6.308;2023-05-03T18:22:25;7.47;;;2.17;;
52396;SDS011;38322;53.108;6.308;2023-05-03T18:24:52;4.50;;;1.48;;
52396;SDS011;38322;53.108;6.308;2023-05-03T18:27:19;5.45;;;2.13;;
52396;SDS011;38322;53.108;6.308;2023-05-03T18:29:46;5.43;;;1.90;;
52396;SDS011;38322;53.108;6.308;2023-05-03T18:32:13;4.00;;;1.80;;
52396;SDS011;38322;53.108;6.308;2023-05-03T18:34:39;5.63;;;2.17;;
52396;SDS011;38322;53.108;6.308;2023-05-03T18:37:05;6.22;;;3.03;;
52396;SDS011;38322;53.108;6.308;2023-05-03T18:39:31;5.18;;;2.42;;
52396;SDS011;38322;53.108;6.308;2023-05-03T18:41:57;5.28;;;2.30;;
52396;SDS011;38322;53.108;6.308;2023-05-03T18:44:23;4.50;;;1.98;;
52396;SDS011;38322;53.108;6.308;2023-05-03T18:46:50;5.95;;;2.38;;
52396;SDS011;38322;53.108;6.308;2023-05-03T18:49:16;4.35;;;2.40;;
52396;SDS011;38322;53.108;6.308;2023-05-03T18:51:43;6.20;;;3.00;;
52396;SDS011;38322;53.108;6.308;2023-05-03T18:54:09;6.65;;;2.60;;
52396;SDS011;38322;53.108;6.308;2023-05-03T18:56:35;9.45;;;3.15;;
52396;SDS011;38322;53.108;6.308;2023-05-03T18:59:01;3.05;;;2.30;;
52396;SDS011;38322;53.108;6.308;2023-05-03T19:01:27;5.88;;;2.97;;
52396;SDS011;38322;53.108;6.308;2023-05-03T19:03:53;3.88;;;3.58;;
52396;SDS011;38322;53.108;6.308;2023-05-03T19:06:19;7.68;;;3.15;;
52396;SDS011;38322;53.108;6.308;2023-05-03T19:08:45;6.03;;;2.60;;
52396;SDS011;38322;53.108;6.308;2023-05-03T19:11:13;2.47;;;2.17;;
52396;SDS011;38322;53.108;6.308;2023-05-03T19:13:39;5.47;;;2.75;;
52396;SDS011;38322;53.108;6.308;2023-05-03T19:16:08;4.22;;;1.83;;
52396;SDS011;38322;53.108;6.308;2023-05-03T19:18:34;11.65;;;2.85;;
52396;SDS011;38322;53.108;6.308;2023-05-03T19:21:02;4.93;;;2.92;;
52396;SDS011;38322;53.108;6.308;2023-05-03T19:23:29;4.32;;;3.80;;
52396;SDS011;38322;53.108;6.308;2023-05-03T19:25:55;5.40;;;2.97;;
52396;SDS011;38322;53.108;6.308;2023-05-03T19:28:21;6.63;;;3.22;;
52396;SDS011;38322;53.108;6.308;2023-05-03T19:30:47;7.07;;;3.28;;
52396;SDS011;38322;53.108;6.308;2023-05-03T19:33:19;10.82;;;2.92;;
52396;SDS011;38322;53.108;6.308;2023-05-03T19:35:45;4.90;;;2.90;;
52396;SDS011;38322;53.108;6.308;2023-05-03T19:38:12;6.20;;;2.78;;
52396;SDS011;38322;53.108;6.308;2023-05-03T19:40:38;11.02;;;4.85;;
52396;SDS011;38322;53.108;6.308;2023-05-03T19:43:04;8.57;;;3.95;;
52396;SDS011;38322;53.108;6.308;2023-05-03T19:45:31;6.80;;;3.47;;
52396;SDS011;38322;53.108;6.308;2023-05-03T19:47:57;8.65;;;3.05;;
52396;SDS011;38322;53.108;6.308;2023-05-03T19:50:23;5.35;;;3.15;;
52396;SDS011;38322;53.108;6.308;2023-05-03T19:52:51;4.35;;;3.20;;
52396;SDS011;38322;53.108;6.308;2023-05-03T19:55:17;10.13;;;3.47;;
52396;SDS011;38322;53.108;6.308;2023-05-03T19:57:43;6.65;;;3.63;;
52396;SDS011;38322;53.108;6.308;2023-05-03T20:00:09;4.47;;;3.45;;
